createdAt,value
2019-01-27T00:01:44.205Z,89.47
2019-01-27T00:07:48.760Z,89.52
2019-01-27T00:13:53.769Z,89.54
2019-01-27T00:19:58.315Z,89.59
2019-01-27T00:26:02.957Z,89.07
2019-01-27T00:32:07.773Z,88.43
2019-01-27T00:38:13.054Z,87.99
2019-01-27T00:44:17.648Z,87.76
2019-01-27T00:50:22.244Z,88.31
2019-01-27T00:56:26.952Z,88.41
2019-01-27T01:02:32.491Z,87.47
2019-01-27T01:08:37.184Z,87.16
2019-01-27T01:14:41.953Z,87.33
2019-01-27T01:20:46.825Z,87.08
2019-01-27T01:26:51.556Z,86.98
2019-01-27T01:32:56.430Z,87.49
2019-01-27T01:39:00.979Z,86.98
2019-01-27T01:45:10.826Z,87.14
2019-01-27T01:51:15.658Z,86.98
2019-01-27T01:57:20.220Z,87.60
2019-01-27T02:03:24.802Z,87.34
2019-01-27T02:09:29.361Z,87.26
2019-01-27T02:15:47.084Z,86.31
2019-01-27T02:21:51.724Z,87.49
2019-01-27T02:27:57.804Z,87.46
2019-01-27T02:34:02.690Z,87.14
2019-01-27T02:40:10.111Z,86.89
2019-01-27T02:46:14.668Z,87.25
2019-01-27T02:52:19.227Z,87.51
2019-01-27T02:58:23.767Z,87.28
2019-01-27T03:04:28.328Z,87.74
2019-01-27T03:10:33.091Z,87.78
2019-01-27T03:16:37.666Z,87.72
2019-01-27T03:22:45.102Z,88.11
2019-01-27T03:28:49.991Z,88.01
2019-01-27T03:34:54.752Z,88.69
2019-01-27T03:40:59.445Z,88.97
2019-01-27T03:47:04.126Z,88.93
2019-01-27T03:53:08.948Z,89.21
2019-01-27T03:59:13.935Z,88.72
2019-01-27T04:05:18.714Z,89.00
2019-01-27T04:11:23.628Z,88.92
2019-01-27T04:17:28.202Z,88.80
2019-01-27T04:23:32.743Z,89.00
2019-01-27T04:29:37.430Z,89.51
2019-01-27T04:35:42.022Z,89.47
2019-01-27T04:41:46.716Z,89.76
2019-01-27T04:47:56.799Z,90.31
2019-01-27T04:54:01.335Z,90.50
2019-01-27T05:00:13.513Z,91.22
2019-01-27T05:06:18.173Z,91.32
2019-01-27T05:12:22.717Z,91.56
2019-01-27T05:18:28.055Z,91.94
2019-01-27T05:24:32.604Z,92.04
2019-01-27T05:30:37.759Z,92.39
2019-01-27T05:36:42.676Z,93.07
2019-01-27T05:42:47.274Z,93.06
2019-01-27T05:48:51.969Z,92.50
2019-01-27T05:54:56.708Z,92.71
2019-01-27T06:01:01.456Z,92.77
2019-01-27T06:07:06.064Z,93.05
2019-01-27T06:13:11.052Z,93.38
2019-01-27T06:19:20.239Z,92.92
2019-01-27T06:25:26.187Z,92.58
2019-01-27T06:31:31.279Z,92.35
2019-01-27T06:37:36.097Z,92.33
2019-01-27T06:43:40.956Z,92.66
2019-01-27T06:49:45.673Z,92.84
2019-01-27T06:55:50.216Z,93.29
2019-01-27T07:01:56.664Z,92.59
2019-01-27T07:08:01.061Z,93.58
2019-01-27T07:14:27.950Z,93.50
2019-01-27T07:20:34.370Z,93.12
2019-01-27T07:26:55.241Z,92.36
2019-01-27T07:33:15.990Z,92.85
2019-01-27T07:39:28.053Z,93.47
2019-01-27T07:45:34.332Z,93.20
2019-01-27T07:51:43.320Z,93.02
2019-01-27T07:57:52.482Z,92.13
2019-01-27T08:04:01.373Z,91.80
2019-01-27T08:10:11.297Z,92.59
2019-01-27T08:16:23.072Z,92.34
2019-01-27T08:22:32.334Z,91.80
2019-01-27T08:28:39.811Z,91.60
2019-01-27T08:35:01.178Z,90.18
2019-01-27T08:41:07.361Z,90.88
2019-01-27T08:47:13.242Z,90.81
2019-01-27T08:53:17.981Z,90.42
2019-01-27T08:59:22.687Z,90.27
2019-01-27T09:05:28.891Z,90.42
2019-01-27T09:11:41.210Z,90.07
2019-01-27T09:17:47.830Z,89.85
2019-01-27T09:23:54.086Z,90.15
2019-01-27T09:30:00.605Z,89.10
2019-01-27T09:36:07.400Z,89.36
2019-01-27T09:42:19.188Z,89.33
2019-01-27T09:48:28.367Z,88.17
2019-01-27T09:54:46.178Z,88.22
2019-01-27T10:01:07.520Z,87.92
2019-01-27T10:07:31.716Z,87.57
2019-01-27T10:13:43.821Z,85.23
2019-01-27T10:19:50.015Z,84.51
2019-01-27T10:25:56.494Z,85.36
2019-01-27T10:32:02.728Z,83.39
2019-01-27T10:38:12.001Z,83.02
2019-01-27T10:44:27.922Z,83.29
2019-01-27T10:50:34.155Z,83.27
2019-01-27T10:56:42.901Z,84.19
2019-01-27T11:02:56.409Z,83.80
2019-01-27T11:09:02.598Z,82.68
2019-01-27T11:15:17.340Z,81.87
2019-01-27T11:21:23.709Z,80.86
2019-01-27T11:27:35.001Z,80.21
2019-01-27T11:33:47.141Z,80.36
2019-01-27T11:40:08.139Z,80.18
2019-01-27T11:46:27.515Z,79.32
2019-01-27T11:52:32.201Z,80.59
2019-01-27T11:58:36.869Z,79.70
2019-01-27T12:04:43.174Z,77.66
2019-01-27T12:10:47.822Z,77.25
2019-01-27T12:16:52.401Z,76.56
2019-01-27T12:22:56.973Z,75.77
2019-01-27T12:29:01.588Z,76.00
2019-01-27T12:35:09.178Z,74.67
2019-01-27T12:41:13.809Z,75.44
2019-01-27T12:47:18.355Z,75.08
2019-01-27T12:53:22.970Z,75.00
2019-01-27T12:59:27.603Z,74.68
2019-01-27T13:05:35.396Z,74.05
2019-01-27T13:11:40.475Z,72.99
2019-01-27T13:17:48.514Z,73.62
2019-01-27T13:23:53.425Z,72.96
2019-01-27T13:29:57.972Z,74.02
2019-01-27T13:36:03.140Z,73.32
2019-01-27T13:42:07.921Z,73.63
2019-01-27T13:48:12.885Z,74.78
2019-01-27T13:54:17.762Z,75.03
2019-01-27T14:00:29.636Z,75.00
2019-01-27T14:06:34.167Z,76.30
2019-01-27T14:12:38.793Z,79.02
2019-01-27T14:18:44.977Z,80.47
2019-01-27T14:24:49.552Z,80.64
2019-01-27T14:30:54.176Z,81.13
2019-01-27T14:36:58.797Z,82.00
2019-01-27T14:43:03.518Z,81.93
2019-01-27T14:49:08.058Z,82.43
2019-01-27T14:55:17.073Z,82.55
2019-01-27T15:01:21.633Z,84.05
2019-01-27T15:07:26.510Z,84.06
2019-01-27T15:13:31.395Z,83.80
2019-01-27T15:19:35.948Z,84.50
2019-01-27T15:25:40.826Z,84.80
2019-01-27T15:31:45.615Z,85.28
2019-01-27T15:37:50.347Z,85.57
2019-01-27T15:43:55.248Z,86.18
2019-01-27T15:50:00.266Z,86.44
2019-01-27T15:56:05.290Z,87.27
2019-01-27T16:02:13.826Z,86.79
2019-01-27T16:08:18.444Z,87.51
2019-01-27T16:14:23.024Z,87.81
2019-01-27T16:20:28.529Z,88.20
2019-01-27T16:26:33.442Z,88.29
2019-01-27T16:32:38.051Z,88.47
2019-01-27T16:38:46.475Z,88.60
2019-01-27T16:44:51.354Z,88.17
2019-01-27T16:50:59.736Z,87.70
2019-01-27T16:57:04.523Z,87.50
2019-01-27T17:03:09.691Z,87.52
2019-01-27T17:09:14.560Z,86.57
2019-01-27T17:15:19.509Z,86.62
2019-01-27T17:21:24.054Z,87.13
2019-01-27T17:27:28.684Z,87.04
2019-01-27T17:33:33.291Z,87.54
2019-01-27T17:39:37.847Z,87.32
2019-01-27T17:45:42.475Z,87.76
2019-01-27T17:51:47.202Z,87.87
2019-01-27T17:57:56.265Z,87.19
2019-01-27T18:04:00.669Z,86.96
2019-01-27T18:10:14.253Z,87.58
2019-01-27T18:16:21.672Z,87.26
2019-01-27T18:22:26.464Z,87.60
2019-01-27T18:28:31.104Z,87.24
2019-01-27T18:34:35.706Z,87.13
2019-01-27T18:40:41.069Z,87.16
2019-01-27T18:46:45.775Z,87.32
2019-01-27T18:52:52.026Z,87.87
2019-01-27T18:59:16.470Z,87.21
2019-01-27T19:05:34.766Z,87.56
2019-01-27T19:11:47.035Z,87.69
2019-01-27T19:18:11.820Z,87.44
2019-01-27T19:24:20.953Z,88.22
2019-01-27T19:30:30.265Z,88.87
2019-01-27T19:36:45.316Z,89.16
2019-01-27T19:42:54.740Z,88.79
2019-01-27T19:49:03.850Z,88.71
2019-01-27T19:55:27.497Z,88.83
2019-01-27T20:01:49.667Z,90.11
2019-01-27T20:07:58.344Z,90.84
2019-01-27T20:14:07.193Z,91.36
2019-01-27T20:20:18.940Z,92.43
2019-01-27T20:26:25.404Z,91.70
2019-01-27T20:32:34.565Z,91.37
2019-01-27T20:38:43.588Z,89.88
2019-01-27T20:45:02.293Z,91.53
2019-01-27T20:51:10.635Z,93.07
2019-01-27T20:57:22.658Z,93.38
2019-01-27T21:03:28.933Z,94.18
2019-01-27T21:09:49.141Z,94.29
2019-01-27T21:15:58.154Z,93.98
2019-01-27T21:22:05.678Z,94.57
2019-01-27T21:28:10.329Z,94.85
2019-01-27T21:34:14.977Z,94.68
2019-01-27T21:40:20.025Z,94.10
2019-01-27T21:46:25.163Z,94.42
2019-01-27T21:52:29.722Z,94.42
2019-01-27T21:58:34.304Z,93.98
2019-01-27T22:04:38.860Z,93.82
2019-01-27T22:10:43.639Z,93.99
2019-01-27T22:16:49.583Z,93.57
2019-01-27T22:22:54.214Z,93.03
2019-01-27T22:28:58.762Z,93.11
2019-01-27T22:35:03.379Z,92.58
2019-01-27T22:41:09.087Z,90.94
2019-01-27T22:47:14.046Z,91.47
2019-01-27T22:53:18.676Z,91.84
2019-01-27T22:59:23.416Z,91.73
2019-01-27T23:05:28.561Z,91.93
2019-01-27T23:11:33.163Z,92.39
2019-01-27T23:17:37.858Z,91.58
2019-01-27T23:23:43.557Z,91.73
2019-01-27T23:29:48.281Z,91.04
2019-01-27T23:42:03.140Z,91.39
2019-01-27T23:48:07.887Z,91.83
2019-01-27T23:54:12.839Z,90.83
